sensor_id;sensor_type;location;lat;lon;timestamp;P1;durP1;ratioP1;P2;durP2;ratioP2
14096;SDS011;7125;48.106;11.544;2022-09-28T00:01:33;0.50;;;0.50;;
14096;SDS011;7125;48.106;11.544;2022-09-28T00:04:00;1.37;;;0.57;;
14096;SDS011;7125;48.106;11.544;2022-09-28T00:06:31;4.33;;;0.90;;
14096;SDS011;7125;48.106;11.544;2022-09-28T00:09:01;0.53;;;0.50;;
14096;SDS011;7125;48.106;11.544;2022-09-28T00:11:28;0.30;;;0.30;;
14096;SDS011;7125;48.106;11.544;2022-09-28T00:13:57;0.67;;;0.47;;
14096;SDS011;7125;48.106;11.544;2022-09-28T00:16:28;0.20;;;0.20;;
14096;SDS011;7125;48.106;11.544;2022-09-28T00:18:57;0.67;;;0.23;;
14096;SDS011;7125;48.106;11.544;2022-09-28T00:21:24;1.20;;;0.53;;
14096;SDS011;7125;48.106;11.544;2022-09-28T00:23:52;2.07;;;1.13;;
14096;SDS011;7125;48.106;11.544;2022-09-28T00:26:41;0.87;;;0.43;;
14096;SDS011;7125;48.106;11.544;2022-09-28T00:29:16;2.90;;;0.70;;
14096;SDS011;7125;48.106;11.544;2022-09-28T00:31:45;0.67;;;0.30;;
14096;SDS011;7125;48.106;11.544;2022-09-28T00:34:16;0.70;;;0.40;;
14096;SDS011;7125;48.106;11.544;2022-09-28T00:36:43;0.20;;;0.20;;
14096;SDS011;7125;48.106;11.544;2022-09-28T00:39:13;0.80;;;0.20;;
14096;SDS011;7125;48.106;11.544;2022-09-28T00:41:41;0.20;;;0.20;;
14096;SDS011;7125;48.106;11.544;2022-09-28T00:44:32;0.20;;;0.20;;
14096;SDS011;7125;48.106;11.544;2022-09-28T00:47:13;0.93;;;0.30;;
14096;SDS011;7125;48.106;11.544;2022-09-28T00:50:02;1.90;;;0.30;;
14096;SDS011;7125;48.106;11.544;2022-09-28T00:52:35;0.20;;;0.20;;
14096;SDS011;7125;48.106;11.544;2022-09-28T00:55:07;0.97;;;0.20;;
14096;SDS011;7125;48.106;11.544;2022-09-28T00:57:38;0.53;;;0.30;;
14096;SDS011;7125;48.106;11.544;2022-09-28T01:00:11;1.77;;;0.20;;
14096;SDS011;7125;48.106;11.544;2022-09-28T01:02:38;0.40;;;0.40;;
14096;SDS011;7125;48.106;11.544;2022-09-28T01:05:06;0.30;;;0.20;;
14096;SDS011;7125;48.106;11.544;2022-09-28T01:07:35;1.40;;;0.40;;
14096;SDS011;7125;48.106;11.544;2022-09-28T01:10:03;0.93;;;0.67;;
14096;SDS011;7125;48.106;11.544;2022-09-28T01:12:31;0.73;;;0.37;;
14096;SDS011;7125;48.106;11.544;2022-09-28T01:14:58;0.87;;;0.20;;
14096;SDS011;7125;48.106;11.544;2022-09-28T01:17:29;0.27;;;0.23;;
14096;SDS011;7125;48.106;11.544;2022-09-28T01:20:06;1.33;;;0.40;;
14096;SDS011;7125;48.106;11.544;2022-09-28T01:26:09;1.40;;;0.33;;
14096;SDS011;7125;48.106;11.544;2022-09-28T01:28:58;0.30;;;0.30;;
14096;SDS011;7125;48.106;11.544;2022-09-28T01:31:30;0.33;;;0.20;;
14096;SDS011;7125;48.106;11.544;2022-09-28T01:34:01;0.83;;;0.30;;
14096;SDS011;7125;48.106;11.544;2022-09-28T01:36:32;0.40;;;0.30;;
14096;SDS011;7125;48.106;11.544;2022-09-28T01:39:03;0.47;;;0.30;;
14096;SDS011;7125;48.106;11.544;2022-09-28T01:41:36;0.80;;;0.33;;
14096;SDS011;7125;48.106;11.544;2022-09-28T01:44:05;0.40;;;0.30;;
14096;SDS011;7125;48.106;11.544;2022-09-28T01:46:36;0.60;;;0.50;;
14096;SDS011;7125;48.106;11.544;2022-09-28T01:49:07;0.80;;;0.40;;
14096;SDS011;7125;48.106;11.544;2022-09-28T01:51:38;0.70;;;0.43;;
14096;SDS011;7125;48.106;11.544;2022-09-28T01:54:09;1.33;;;1.03;;
14096;SDS011;7125;48.106;11.544;2022-09-28T01:56:43;0.97;;;0.23;;
14096;SDS011;7125;48.106;11.544;2022-09-28T01:59:17;1.60;;;0.70;;
14096;SDS011;7125;48.106;11.544;2022-09-28T02:01:48;3.03;;;0.43;;
14096;SDS011;7125;48.106;11.544;2022-09-28T02:04:19;0.63;;;0.40;;
14096;SDS011;7125;48.106;11.544;2022-09-28T02:06:51;0.83;;;0.30;;
14096;SDS011;7125;48.106;11.544;2022-09-28T02:09:22;0.90;;;0.30;;
14096;SDS011;7125;48.106;11.544;2022-09-28T02:11:56;1.73;;;0.30;;
14096;SDS011;7125;48.106;11.544;2022-09-28T02:14:29;1.83;;;0.83;;
14096;SDS011;7125;48.106;11.544;2022-09-28T02:16:56;1.07;;;0.53;;
14096;SDS011;7125;48.106;11.544;2022-09-28T02:19:28;0.90;;;0.50;;
14096;SDS011;7125;48.106;11.544;2022-09-28T02:21:58;1.07;;;0.77;;
14096;SDS011;7125;48.106;11.544;2022-09-28T02:24:34;2.00;;;0.50;;
14096;SDS011;7125;48.106;11.544;2022-09-28T02:27:08;0.50;;;0.40;;
14096;SDS011;7125;48.106;11.544;2022-09-28T02:29:43;1.50;;;0.53;;
14096;SDS011;7125;48.106;11.544;2022-09-28T02:32:10;0.70;;;0.50;;
14096;SDS011;7125;48.106;11.544;2022-09-28T02:34:38;0.27;;;0.27;;
14096;SDS011;7125;48.106;11.544;2022-09-28T02:37:05;0.93;;;0.30;;
14096;SDS011;7125;48.106;11.544;2022-09-28T02:39:32;0.63;;;0.27;;
14096;SDS011;7125;48.106;11.544;2022-09-28T02:42:00;1.30;;;0.50;;
14096;SDS011;7125;48.106;11.544;2022-09-28T02:44:41;0.57;;;0.57;;
14096;SDS011;7125;48.106;11.544;2022-09-28T02:47:27;0.83;;;0.50;;
14096;SDS011;7125;48.106;11.544;2022-09-28T02:50:06;4.53;;;0.60;;
14096;SDS011;7125;48.106;11.544;2022-09-28T02:52:51;0.90;;;0.40;;
14096;SDS011;7125;48.106;11.544;2022-09-28T02:55:38;5.83;;;0.47;;
14096;SDS011;7125;48.106;11.544;2022-09-28T02:58:19;0.40;;;0.30;;
14096;SDS011;7125;48.106;11.544;2022-09-28T03:01:00;1.57;;;0.50;;
14096;SDS011;7125;48.106;11.544;2022-09-28T03:03:33;0.60;;;0.40;;
14096;SDS011;7125;48.106;11.544;2022-09-28T03:06:08;0.77;;;0.50;;
14096;SDS011;7125;48.106;11.544;2022-09-28T03:08:47;2.87;;;0.40;;
14096;SDS011;7125;48.106;11.544;2022-09-28T03:11:23;0.30;;;0.23;;
14096;SDS011;7125;48.106;11.544;2022-09-28T03:13:54;3.00;;;0.40;;
14096;SDS011;7125;48.106;11.544;2022-09-28T03:16:31;1.10;;;0.50;;
14096;SDS011;7125;48.106;11.544;2022-09-28T03:18:58;1.00;;;0.40;;
14096;SDS011;7125;48.106;11.544;2022-09-28T03:21:25;1.43;;;0.30;;
14096;SDS011;7125;48.106;11.544;2022-09-28T03:23:52;0.30;;;0.30;;
14096;SDS011;7125;48.106;11.544;2022-09-28T03:26:19;2.43;;;1.23;;
14096;SDS011;7125;48.106;11.544;2022-09-28T03:28:46;1.03;;;0.40;;
14096;SDS011;7125;48.106;11.544;2022-09-28T03:31:20;2.37;;;0.30;;
14096;SDS011;7125;48.106;11.544;2022-09-28T03:33:50;1.90;;;0.60;;
14096;SDS011;7125;48.106;11.544;2022-09-28T03:36:18;1.33;;;0.30;;
14096;SDS011;7125;48.106;11.544;2022-09-28T03:38:45;2.93;;;0.60;;
14096;SDS011;7125;48.106;11.544;2022-09-28T03:41:12;1.40;;;0.43;;
14096;SDS011;7125;48.106;11.544;2022-09-28T03:43:41;1.50;;;0.60;;
14096;SDS011;7125;48.106;11.544;2022-09-28T03:46:10;0.43;;;0.43;;
14096;SDS011;7125;48.106;11.544;2022-09-28T03:48:42;1.07;;;0.60;;
14096;SDS011;7125;48.106;11.544;2022-09-28T03:51:11;0.87;;;0.50;;
14096;SDS011;7125;48.106;11.544;2022-09-28T03:53:38;0.30;;;0.30;;
14096;SDS011;7125;48.106;11.544;2022-09-28T03:56:06;0.63;;;0.30;;
14096;SDS011;7125;48.106;11.544;2022-09-28T03:58:37;0.80;;;0.50;;
14096;SDS011;7125;48.106;11.544;2022-09-28T04:01:05;2.10;;;0.20;;
14096;SDS011;7125;48.106;11.544;2022-09-28T04:03:34;0.43;;;0.40;;
14096;SDS011;7125;48.106;11.544;2022-09-28T04:06:01;1.40;;;0.50;;
14096;SDS011;7125;48.106;11.544;2022-09-28T04:08:29;1.60;;;0.20;;
14096;SDS011;7125;48.106;11.544;2022-09-28T04:10:57;1.93;;;0.50;;
14096;SDS011;7125;48.106;11.544;2022-09-28T04:13:25;2.03;;;0.30;;
14096;SDS011;7125;48.106;11.544;2022-09-28T04:15:53;1.60;;;0.50;;
14096;SDS011;7125;48.106;11.544;2022-09-28T04:18:22;0.30;;;0.20;;
14096;SDS011;7125;48.106;11.544;2022-09-28T04:21:03;1.37;;;0.37;;
14096;SDS011;7125;48.106;11.544;2022-09-28T04:23:38;0.63;;;0.57;;
14096;SDS011;7125;48.106;11.544;2022-09-28T04:26:05;0.90;;;0.27;;
14096;SDS011;7125;48.106;11.544;2022-09-28T04:28:33;0.80;;;0.50;;
14096;SDS011;7125;48.106;11.544;2022-09-28T04:31:20;0.73;;;0.73;;
14096;SDS011;7125;48.106;11.544;2022-09-28T04:33:50;0.20;;;0.20;;
14096;SDS011;7125;48.106;11.544;2022-09-28T04:36:18;0.40;;;0.30;;
14096;SDS011;7125;48.106;11.544;2022-09-28T04:38:47;0.80;;;0.50;;
14096;SDS011;7125;48.106;11.544;2022-09-28T04:41:14;0.50;;;0.50;;
14096;SDS011;7125;48.106;11.544;2022-09-28T04:43:41;1.30;;;0.53;;
14096;SDS011;7125;48.106;11.544;2022-09-28T04:46:08;1.90;;;0.53;;
14096;SDS011;7125;48.106;11.544;2022-09-28T04:48:46;0.50;;;0.30;;
14096;SDS011;7125;48.106;11.544;2022-09-28T04:51:38;1.90;;;0.20;;
14096;SDS011;7125;48.106;11.544;2022-09-28T04:54:07;0.37;;;0.37;;
14096;SDS011;7125;48.106;11.544;2022-09-28T04:56:33;1.47;;;0.30;;
14096;SDS011;7125;48.106;11.544;2022-09-28T04:59:00;0.63;;;0.30;;
14096;SDS011;7125;48.106;11.544;2022-09-28T05:01:28;2.03;;;0.53;;
14096;SDS011;7125;48.106;11.544;2022-09-28T05:03:58;0.40;;;0.40;;
14096;SDS011;7125;48.106;11.544;2022-09-28T05:06:57;1.07;;;0.20;;
14096;SDS011;7125;48.106;11.544;2022-09-28T05:09:25;0.73;;;0.20;;
14096;SDS011;7125;48.106;11.544;2022-09-28T05:11:52;1.27;;;0.50;;
14096;SDS011;7125;48.106;11.544;2022-09-28T05:14:22;0.50;;;0.47;;
14096;SDS011;7125;48.106;11.544;2022-09-28T05:16:50;2.67;;;1.27;;
14096;SDS011;7125;48.106;11.544;2022-09-28T05:19:26;0.50;;;0.40;;
14096;SDS011;7125;48.106;11.544;2022-09-28T05:22:01;2.97;;;0.40;;
14096;SDS011;7125;48.106;11.544;2022-09-28T05:24:31;0.40;;;0.40;;
14096;SDS011;7125;48.106;11.544;2022-09-28T05:26:58;0.70;;;0.70;;
14096;SDS011;7125;48.106;11.544;2022-09-28T05:29:25;1.97;;;0.43;;
14096;SDS011;7125;48.106;11.544;2022-09-28T05:32:10;0.97;;;0.37;;
14096;SDS011;7125;48.106;11.544;2022-09-28T05:34:43;1.47;;;0.70;;
14096;SDS011;7125;48.106;11.544;2022-09-28T05:37:18;1.20;;;0.70;;
14096;SDS011;7125;48.106;11.544;2022-09-28T05:39:47;0.60;;;0.50;;
14096;SDS011;7125;48.106;11.544;2022-09-28T05:42:13;0.50;;;0.50;;
14096;SDS011;7125;48.106;11.544;2022-09-28T05:44:41;0.67;;;0.53;;
14096;SDS011;7125;48.106;11.544;2022-09-28T05:47:08;1.23;;;0.60;;
14096;SDS011;7125;48.106;11.544;2022-09-28T05:49:35;0.70;;;0.70;;
14096;SDS011;7125;48.106;11.544;2022-09-28T05:52:02;1.07;;;0.60;;
14096;SDS011;7125;48.106;11.544;2022-09-28T05:54:31;0.37;;;0.30;;
14096;SDS011;7125;48.106;11.544;2022-09-28T05:57:01;0.83;;;0.40;;
14096;SDS011;7125;48.106;11.544;2022-09-28T05:59:30;0.57;;;0.50;;
14096;SDS011;7125;48.106;11.544;2022-09-28T06:01:59;1.43;;;0.50;;
14096;SDS011;7125;48.106;11.544;2022-09-28T06:04:26;1.13;;;0.80;;
14096;SDS011;7125;48.106;11.544;2022-09-28T06:06:53;2.63;;;0.30;;
14096;SDS011;7125;48.106;11.544;2022-09-28T06:09:20;0.50;;;0.50;;
14096;SDS011;7125;48.106;11.544;2022-09-28T06:12:10;2.27;;;2.07;;
14096;SDS011;7125;48.106;11.544;2022-09-28T06:14:41;1.40;;;0.90;;
14096;SDS011;7125;48.106;11.544;2022-09-28T06:17:09;1.40;;;1.20;;
14096;SDS011;7125;48.106;11.544;2022-09-28T06:19:39;1.50;;;0.73;;
14096;SDS011;7125;48.106;11.544;2022-09-28T06:22:15;0.80;;;0.40;;
14096;SDS011;7125;48.106;11.544;2022-09-28T06:25:02;0.83;;;0.60;;
14096;SDS011;7125;48.106;11.544;2022-09-28T06:27:31;0.47;;;0.40;;
14096;SDS011;7125;48.106;11.544;2022-09-28T06:29:58;0.40;;;0.40;;
14096;SDS011;7125;48.106;11.544;2022-09-28T06:32:27;1.10;;;0.70;;
14096;SDS011;7125;48.106;11.544;2022-09-28T06:34:54;0.57;;;0.57;;
14096;SDS011;7125;48.106;11.544;2022-09-28T06:37:23;0.63;;;0.53;;
14096;SDS011;7125;48.106;11.544;2022-09-28T06:39:51;1.67;;;1.00;;
14096;SDS011;7125;48.106;11.544;2022-09-28T06:42:19;2.17;;;0.63;;
14096;SDS011;7125;48.106;11.544;2022-09-28T06:45:11;0.47;;;0.30;;
14096;SDS011;7125;48.106;11.544;2022-09-28T06:48:03;0.57;;;0.57;;
14096;SDS011;7125;48.106;11.544;2022-09-28T06:50:37;1.10;;;0.63;;
14096;SDS011;7125;48.106;11.544;2022-09-28T06:53:24;0.87;;;0.73;;
14096;SDS011;7125;48.106;11.544;2022-09-28T06:56:00;4.47;;;0.77;;
14096;SDS011;7125;48.106;11.544;2022-09-28T06:58:28;1.07;;;0.97;;
14096;SDS011;7125;48.106;11.544;2022-09-28T07:00:58;1.07;;;0.70;;
14096;SDS011;7125;48.106;11.544;2022-09-28T07:03:28;0.50;;;0.40;;
14096;SDS011;7125;48.106;11.544;2022-09-28T07:06:33;0.73;;;0.57;;
14096;SDS011;7125;48.106;11.544;2022-09-28T07:09:21;4.73;;;0.90;;
14096;SDS011;7125;48.106;11.544;2022-09-28T07:12:06;0.80;;;0.50;;
14096;SDS011;7125;48.106;11.544;2022-09-28T07:14:46;1.60;;;0.70;;
14096;SDS011;7125;48.106;11.544;2022-09-28T07:17:15;0.40;;;0.40;;
14096;SDS011;7125;48.106;11.544;2022-09-28T07:19:42;0.83;;;0.50;;
14096;SDS011;7125;48.106;11.544;2022-09-28T07:22:09;0.50;;;0.50;;
14096;SDS011;7125;48.106;11.544;2022-09-28T07:24:39;0.80;;;0.57;;
14096;SDS011;7125;48.106;11.544;2022-09-28T07:27:26;2.00;;;1.33;;
14096;SDS011;7125;48.106;11.544;2022-09-28T07:30:07;1.47;;;0.80;;
14096;SDS011;7125;48.106;11.544;2022-09-28T07:32:54;1.83;;;0.60;;
14096;SDS011;7125;48.106;11.544;2022-09-28T07:35:34;0.33;;;0.33;;
14096;SDS011;7125;48.106;11.544;2022-09-28T07:38:02;3.93;;;0.63;;
14096;SDS011;7125;48.106;11.544;2022-09-28T07:40:31;1.83;;;0.70;;
14096;SDS011;7125;48.106;11.544;2022-09-28T07:43:17;1.20;;;0.70;;
14096;SDS011;7125;48.106;11.544;2022-09-28T07:45:46;0.83;;;0.70;;
14096;SDS011;7125;48.106;11.544;2022-09-28T07:48:16;0.63;;;0.40;;
14096;SDS011;7125;48.106;11.544;2022-09-28T07:50:46;0.57;;;0.57;;
14096;SDS011;7125;48.106;11.544;2022-09-28T07:53:48;3.43;;;0.50;;
14096;SDS011;7125;48.106;11.544;2022-09-28T07:56:35;3.20;;;0.60;;
14096;SDS011;7125;48.106;11.544;2022-09-28T07:59:10;1.97;;;0.70;;
14096;SDS011;7125;48.106;11.544;2022-09-28T08:01:37;0.60;;;0.53;;
14096;SDS011;7125;48.106;11.544;2022-09-28T08:04:08;2.70;;;0.40;;
14096;SDS011;7125;48.106;11.544;2022-09-28T08:06:37;0.73;;;0.50;;
14096;SDS011;7125;48.106;11.544;2022-09-28T08:09:05;0.60;;;0.47;;
14096;SDS011;7125;48.106;11.544;2022-09-28T08:11:51;1.13;;;0.93;;
14096;SDS011;7125;48.106;11.544;2022-09-28T08:14:48;1.30;;;0.53;;
14096;SDS011;7125;48.106;11.544;2022-09-28T08:17:44;0.30;;;0.20;;
14096;SDS011;7125;48.106;11.544;2022-09-28T08:20:13;0.60;;;0.60;;
14096;SDS011;7125;48.106;11.544;2022-09-28T08:23:01;0.80;;;0.50;;
14096;SDS011;7125;48.106;11.544;2022-09-28T08:25:29;0.83;;;0.40;;
14096;SDS011;7125;48.106;11.544;2022-09-28T08:27:59;0.60;;;0.60;;
14096;SDS011;7125;48.106;11.544;2022-09-28T08:30:29;3.83;;;2.33;;
14096;SDS011;7125;48.106;11.544;2022-09-28T08:33:15;0.47;;;0.43;;
14096;SDS011;7125;48.106;11.544;2022-09-28T08:35:46;0.63;;;0.63;;
14096;SDS011;7125;48.106;11.544;2022-09-28T08:38:27;3.13;;;0.90;;
14096;SDS011;7125;48.106;11.544;2022-09-28T08:41:03;1.97;;;0.73;;
14096;SDS011;7125;48.106;11.544;2022-09-28T08:44:00;0.73;;;0.73;;
14096;SDS011;7125;48.106;11.544;2022-09-28T08:46:59;1.43;;;0.70;;
14096;SDS011;7125;48.106;11.544;2022-09-28T08:49:42;0.97;;;0.40;;
14096;SDS011;7125;48.106;11.544;2022-09-28T08:52:32;1.90;;;0.63;;
14096;SDS011;7125;48.106;11.544;2022-09-28T08:55:23;0.70;;;0.50;;
14096;SDS011;7125;48.106;11.544;2022-09-28T08:57:54;1.67;;;0.97;;
14096;SDS011;7125;48.106;11.544;2022-09-28T09:00:30;0.87;;;0.63;;
14096;SDS011;7125;48.106;11.544;2022-09-28T09:03:02;4.00;;;0.40;;
14096;SDS011;7125;48.106;11.544;2022-09-28T09:05:38;0.57;;;0.37;;
14096;SDS011;7125;48.106;11.544;2022-09-28T09:08:40;1.10;;;0.60;;
14096;SDS011;7125;48.106;11.544;2022-09-28T09:11:22;0.87;;;0.87;;
14096;SDS011;7125;48.106;11.544;2022-09-28T09:14:19;0.30;;;0.30;;
14096;SDS011;7125;48.106;11.544;2022-09-28T09:17:04;0.80;;;0.60;;
14096;SDS011;7125;48.106;11.544;2022-09-28T09:20:03;0.83;;;0.33;;
14096;SDS011;7125;48.106;11.544;2022-09-28T09:22:58;1.07;;;0.33;;
14096;SDS011;7125;48.106;11.544;2022-09-28T09:25:29;1.97;;;0.63;;
14096;SDS011;7125;48.106;11.544;2022-09-28T09:28:20;3.30;;;0.80;;
14096;SDS011;7125;48.106;11.544;2022-09-28T09:31:17;2.40;;;0.43;;
14096;SDS011;7125;48.106;11.544;2022-09-28T09:34:10;2.10;;;0.70;;
14096;SDS011;7125;48.106;11.544;2022-09-28T09:37:22;1.10;;;0.60;;
14096;SDS011;7125;48.106;11.544;2022-09-28T09:40:22;4.20;;;1.30;;
14096;SDS011;7125;48.106;11.544;2022-09-28T09:43:32;2.20;;;0.60;;
14096;SDS011;7125;48.106;11.544;2022-09-28T09:46:57;3.27;;;1.07;;
14096;SDS011;7125;48.106;11.544;2022-09-28T09:49:50;1.63;;;0.80;;
14096;SDS011;7125;48.106;11.544;2022-09-28T09:52:27;2.63;;;0.90;;
14096;SDS011;7125;48.106;11.544;2022-09-28T09:55:01;5.53;;;1.70;;
14096;SDS011;7125;48.106;11.544;2022-09-28T09:57:41;2.73;;;1.30;;
14096;SDS011;7125;48.106;11.544;2022-09-28T10:00:30;2.40;;;1.03;;
14096;SDS011;7125;48.106;11.544;2022-09-28T10:03:19;4.23;;;1.13;;
14096;SDS011;7125;48.106;11.544;2022-09-28T10:05:52;3.67;;;2.57;;
14096;SDS011;7125;48.106;11.544;2022-09-28T10:08:24;1.17;;;0.97;;
14096;SDS011;7125;48.106;11.544;2022-09-28T10:10:55;6.07;;;3.27;;
14096;SDS011;7125;48.106;11.544;2022-09-28T10:13:40;5.10;;;1.80;;
14096;SDS011;7125;48.106;11.544;2022-09-28T10:16:28;2.43;;;1.90;;
14096;SDS011;7125;48.106;11.544;2022-09-28T10:18:59;2.63;;;1.00;;
14096;SDS011;7125;48.106;11.544;2022-09-28T10:21:45;1.50;;;0.97;;
14096;SDS011;7125;48.106;11.544;2022-09-28T10:24:28;1.40;;;0.80;;
14096;SDS011;7125;48.106;11.544;2022-09-28T10:26:58;1.47;;;0.70;;
14096;SDS011;7125;48.106;11.544;2022-09-28T10:29:36;0.93;;;0.73;;
14096;SDS011;7125;48.106;11.544;2022-09-28T10:32:16;1.23;;;0.67;;
14096;SDS011;7125;48.106;11.544;2022-09-28T10:34:44;1.93;;;1.00;;
14096;SDS011;7125;48.106;11.544;2022-09-28T10:37:14;1.27;;;0.90;;
14096;SDS011;7125;48.106;11.544;2022-09-28T10:40:19;0.97;;;0.87;;
14096;SDS011;7125;48.106;11.544;2022-09-28T10:43:01;1.00;;;1.00;;
14096;SDS011;7125;48.106;11.544;2022-09-28T10:45:34;1.00;;;0.67;;
14096;SDS011;7125;48.106;11.544;2022-09-28T10:48:06;1.40;;;1.00;;
14096;SDS011;7125;48.106;11.544;2022-09-28T10:50:41;1.20;;;0.70;;
14096;SDS011;7125;48.106;11.544;2022-09-28T10:53:15;1.37;;;1.03;;
14096;SDS011;7125;48.106;11.544;2022-09-28T10:56:03;0.73;;;0.73;;
14096;SDS011;7125;48.106;11.544;2022-09-28T10:58:35;3.77;;;0.80;;
14096;SDS011;7125;48.106;11.544;2022-09-28T11:01:08;4.57;;;1.87;;
14096;SDS011;7125;48.106;11.544;2022-09-28T11:03:46;4.67;;;2.60;;
14096;SDS011;7125;48.106;11.544;2022-09-28T11:06:21;1.40;;;0.70;;
14096;SDS011;7125;48.106;11.544;2022-09-28T11:08:50;5.43;;;0.93;;
14096;SDS011;7125;48.106;11.544;2022-09-28T11:11:20;2.40;;;1.00;;
14096;SDS011;7125;48.106;11.544;2022-09-28T11:13:58;2.33;;;1.17;;
14096;SDS011;7125;48.106;11.544;2022-09-28T11:16:32;0.63;;;0.60;;
14096;SDS011;7125;48.106;11.544;2022-09-28T11:19:02;1.40;;;1.10;;
14096;SDS011;7125;48.106;11.544;2022-09-28T11:21:39;2.33;;;0.97;;
14096;SDS011;7125;48.106;11.544;2022-09-28T11:24:17;2.03;;;0.87;;
14096;SDS011;7125;48.106;11.544;2022-09-28T11:26:48;1.30;;;1.20;;
14096;SDS011;7125;48.106;11.544;2022-09-28T11:29:23;2.90;;;1.37;;
14096;SDS011;7125;48.106;11.544;2022-09-28T11:32:13;1.10;;;0.90;;
14096;SDS011;7125;48.106;11.544;2022-09-28T11:35:15;1.90;;;0.90;;
14096;SDS011;7125;48.106;11.544;2022-09-28T11:37:48;5.03;;;0.93;;
14096;SDS011;7125;48.106;11.544;2022-09-28T11:41:05;1.77;;;1.00;;
14096;SDS011;7125;48.106;11.544;2022-09-28T11:43:46;2.57;;;1.33;;
14096;SDS011;7125;48.106;11.544;2022-09-28T11:46:25;3.77;;;1.53;;
14096;SDS011;7125;48.106;11.544;2022-09-28T11:49:16;2.67;;;1.27;;
14096;SDS011;7125;48.106;11.544;2022-09-28T11:51:52;1.60;;;1.20;;
14096;SDS011;7125;48.106;11.544;2022-09-28T11:54:26;1.30;;;0.80;;
14096;SDS011;7125;48.106;11.544;2022-09-28T11:57:00;2.87;;;1.10;;
14096;SDS011;7125;48.106;11.544;2022-09-28T11:59:30;1.30;;;1.20;;
14096;SDS011;7125;48.106;11.544;2022-09-28T12:02:02;1.20;;;1.10;;
14096;SDS011;7125;48.106;11.544;2022-09-28T12:04:45;1.90;;;1.17;;
14096;SDS011;7125;48.106;11.544;2022-09-28T12:07:22;4.40;;;1.30;;
14096;SDS011;7125;48.106;11.544;2022-09-28T12:09:53;3.53;;;1.67;;
14096;SDS011;7125;48.106;11.544;2022-09-28T12:12:27;2.67;;;1.10;;
14096;SDS011;7125;48.106;11.544;2022-09-28T12:15:00;2.70;;;1.10;;
14096;SDS011;7125;48.106;11.544;2022-09-28T12:17:31;3.17;;;1.00;;
14096;SDS011;7125;48.106;11.544;2022-09-28T12:20:09;2.27;;;1.13;;
14096;SDS011;7125;48.106;11.544;2022-09-28T12:22:44;1.60;;;1.23;;
14096;SDS011;7125;48.106;11.544;2022-09-28T12:25:17;1.20;;;1.10;;
14096;SDS011;7125;48.106;11.544;2022-09-28T12:27:48;2.53;;;1.23;;
14096;SDS011;7125;48.106;11.544;2022-09-28T12:30:19;1.57;;;1.20;;
14096;SDS011;7125;48.106;11.544;2022-09-28T12:32:49;1.20;;;1.10;;
14096;SDS011;7125;48.106;11.544;2022-09-28T12:35:31;1.90;;;1.17;;
14096;SDS011;7125;48.106;11.544;2022-09-28T12:38:27;3.80;;;1.23;;
14096;SDS011;7125;48.106;11.544;2022-09-28T12:41:18;4.20;;;1.03;;
14096;SDS011;7125;48.106;11.544;2022-09-28T12:46:48;2.33;;;1.37;;
14096;SDS011;7125;48.106;11.544;2022-09-28T12:49:32;2.50;;;1.27;;
14096;SDS011;7125;48.106;11.544;2022-09-28T12:52:14;1.17;;;1.07;;
14096;SDS011;7125;48.106;11.544;2022-09-28T12:55:02;2.00;;;1.87;;
14096;SDS011;7125;48.106;11.544;2022-09-28T12:57:50;1.63;;;1.37;;
14096;SDS011;7125;48.106;11.544;2022-09-28T13:00:24;2.33;;;1.60;;
14096;SDS011;7125;48.106;11.544;2022-09-28T13:09:15;1.30;;;1.20;;
14096;SDS011;7125;48.106;11.544;2022-09-28T13:20:25;3.10;;;1.60;;
14096;SDS011;7125;48.106;11.544;2022-09-28T13:22:58;1.50;;;1.40;;
14096;SDS011;7125;48.106;11.544;2022-09-28T13:25:35;2.10;;;1.77;;
14096;SDS011;7125;48.106;11.544;2022-09-28T13:28:08;4.07;;;2.10;;
14096;SDS011;7125;48.106;11.544;2022-09-28T13:30:38;2.27;;;1.40;;
14096;SDS011;7125;48.106;11.544;2022-09-28T13:33:06;2.60;;;1.50;;
14096;SDS011;7125;48.106;11.544;2022-09-28T13:35:44;18.17;;;4.30;;
14096;SDS011;7125;48.106;11.544;2022-09-28T13:38:29;2.33;;;1.87;;
14096;SDS011;7125;48.106;11.544;2022-09-28T13:47:02;5.27;;;2.00;;
14096;SDS011;7125;48.106;11.544;2022-09-28T13:49:43;5.53;;;2.00;;
14096;SDS011;7125;48.106;11.544;2022-09-28T13:52:28;4.00;;;2.07;;
14096;SDS011;7125;48.106;11.544;2022-09-28T13:55:09;4.83;;;2.10;;
14096;SDS011;7125;48.106;11.544;2022-09-28T13:57:52;2.30;;;2.10;;
14096;SDS011;7125;48.106;11.544;2022-09-28T14:00:24;2.53;;;1.77;;
14096;SDS011;7125;48.106;11.544;2022-09-28T14:02:56;2.20;;;2.00;;
14096;SDS011;7125;48.106;11.544;2022-09-28T14:05:33;3.93;;;2.27;;
14096;SDS011;7125;48.106;11.544;2022-09-28T14:08:17;3.00;;;2.10;;
14096;SDS011;7125;48.106;11.544;2022-09-28T14:14:18;3.70;;;2.20;;
14096;SDS011;7125;48.106;11.544;2022-09-28T14:16:52;2.97;;;2.30;;
14096;SDS011;7125;48.106;11.544;2022-09-28T14:19:45;3.17;;;2.10;;
14096;SDS011;7125;48.106;11.544;2022-09-28T14:22:19;2.87;;;2.40;;
14096;SDS011;7125;48.106;11.544;2022-09-28T14:27:51;2.20;;;2.00;;
14096;SDS011;7125;48.106;11.544;2022-09-28T14:30:42;2.53;;;2.33;;
14096;SDS011;7125;48.106;11.544;2022-09-28T14:33:21;5.20;;;2.80;;
14096;SDS011;7125;48.106;11.544;2022-09-28T14:35:52;6.10;;;3.00;;
14096;SDS011;7125;48.106;11.544;2022-09-28T14:38:22;5.93;;;2.73;;
14096;SDS011;7125;48.106;11.544;2022-09-28T14:41:10;2.83;;;2.00;;
14096;SDS011;7125;48.106;11.544;2022-09-28T14:44:04;5.20;;;2.87;;
14096;SDS011;7125;48.106;11.544;2022-09-28T14:46:38;8.07;;;2.80;;
14096;SDS011;7125;48.106;11.544;2022-09-28T14:52:18;3.03;;;2.57;;
14096;SDS011;7125;48.106;11.544;2022-09-28T14:55:09;2.70;;;2.17;;
14096;SDS011;7125;48.106;11.544;2022-09-28T14:57:39;4.10;;;2.37;;
14096;SDS011;7125;48.106;11.544;2022-09-28T15:00:09;4.17;;;2.57;;
14096;SDS011;7125;48.106;11.544;2022-09-28T15:02:46;5.77;;;2.60;;
14096;SDS011;7125;48.106;11.544;2022-09-28T15:05:17;3.43;;;2.47;;
14096;SDS011;7125;48.106;11.544;2022-09-28T15:07:48;3.80;;;2.73;;
14096;SDS011;7125;48.106;11.544;2022-09-28T15:10:24;6.73;;;3.30;;
14096;SDS011;7125;48.106;11.544;2022-09-28T15:12:56;3.50;;;3.20;;
14096;SDS011;7125;48.106;11.544;2022-09-28T15:15:26;3.63;;;2.97;;
14096;SDS011;7125;48.106;11.544;2022-09-28T15:18:01;2.93;;;2.60;;
14096;SDS011;7125;48.106;11.544;2022-09-28T15:20:43;5.30;;;3.13;;
14096;SDS011;7125;48.106;11.544;2022-09-28T15:23:25;2.77;;;1.90;;
14096;SDS011;7125;48.106;11.544;2022-09-28T15:25:58;2.43;;;2.23;;
14096;SDS011;7125;48.106;11.544;2022-09-28T15:28:25;3.10;;;2.43;;
14096;SDS011;7125;48.106;11.544;2022-09-28T15:30:57;3.47;;;2.30;;
14096;SDS011;7125;48.106;11.544;2022-09-28T15:33:27;4.43;;;2.57;;
14096;SDS011;7125;48.106;11.544;2022-09-28T15:36:14;2.83;;;2.50;;
14096;SDS011;7125;48.106;11.544;2022-09-28T15:38:47;2.50;;;2.30;;
14096;SDS011;7125;48.106;11.544;2022-09-28T15:41:19;2.97;;;2.70;;
14096;SDS011;7125;48.106;11.544;2022-09-28T15:44:02;3.07;;;2.77;;
14096;SDS011;7125;48.106;11.544;2022-09-28T15:46:33;2.37;;;2.10;;
14096;SDS011;7125;48.106;11.544;2022-09-28T15:49:03;4.60;;;3.13;;
14096;SDS011;7125;48.106;11.544;2022-09-28T15:51:43;3.73;;;2.90;;
14096;SDS011;7125;48.106;11.544;2022-09-28T15:54:13;3.83;;;2.70;;
14096;SDS011;7125;48.106;11.544;2022-09-28T15:56:50;4.73;;;2.60;;
14096;SDS011;7125;48.106;11.544;2022-09-28T15:59:24;7.67;;;3.17;;
14096;SDS011;7125;48.106;11.544;2022-09-28T16:02:02;4.70;;;3.00;;
14096;SDS011;7125;48.106;11.544;2022-09-28T16:07:27;3.73;;;2.60;;
14096;SDS011;7125;48.106;11.544;2022-09-28T16:12:56;8.07;;;2.80;;
14096;SDS011;7125;48.106;11.544;2022-09-28T16:15:26;3.50;;;2.70;;
14096;SDS011;7125;48.106;11.544;2022-09-28T16:17:56;3.67;;;2.47;;
14096;SDS011;7125;48.106;11.544;2022-09-28T16:20:27;4.57;;;2.20;;
14096;SDS011;7125;48.106;11.544;2022-09-28T16:22:56;3.87;;;2.00;;